Time;durP1;ratioP1;P1;durP2;ratioP2;P2;SDS_P1;SDS_P2;PMS_P1;PMS_P2;Temp;Humidity;BMP_temperature;BMP_pressure;BME280_temperature;BME280_humidity;BME280_pressure;Samples;Min_cycle;Max_cycle;Signal;HPM_P1;HPM_P2
2021/09/06 00:04:10;;;;;;;6.68;2.78;;;25.00;53.80;;;;;;6079152;29;20033;-78
2021/09/06 00:07:11;;;;;;;4.03;3.00;;;24.60;53.40;;;;;;6075116;29;20052;-78
2021/09/06 00:10:35;;;;;;;3.75;2.70;;;24.60;53.20;;;;;;6062687;29;20051;-78
2021/09/06 00:13:38;;;;;;;3.92;2.95;;;24.60;53.10;;;;;;6082339;29;20354;-77
2021/09/06 00:16:39;;;;;;;4.15;2.90;;;24.60;53.00;;;;;;6054335;29;20036;-77
2021/09/06 00:19:40;;;;;;;8.93;2.70;;;24.60;52.80;;;;;;6078091;29;20048;-78
2021/09/06 00:22:41;;;;;;;5.63;2.72;;;24.60;52.70;;;;;;6062893;29;20351;-78
2021/09/06 00:25:43;;;;;;;7.63;3.22;;;24.50;52.60;;;;;;6044813;29;20054;-78
2021/09/06 00:28:46;;;;;;;4.38;2.45;;;24.50;52.70;;;;;;6040114;29;20052;-78
2021/09/06 00:31:47;;;;;;;4.22;2.70;;;24.50;52.60;;;;;;6081330;28;20044;-79
2021/09/06 00:34:49;;;;;;;6.90;3.08;;;24.50;52.60;;;;;;6179540;28;20482;-79
2021/09/06 00:37:50;;;;;;;5.00;3.03;;;24.50;52.60;;;;;;6248423;28;20067;-78
2021/09/06 00:40:52;;;;;;;4.93;2.83;;;24.50;52.50;;;;;;6248632;28;20041;-78
2021/09/06 00:43:54;;;;;;;5.65;3.20;;;24.50;52.50;;;;;;6235605;28;20030;-78
2021/09/06 00:46:59;;;;;;;3.92;2.50;;;24.50;52.40;;;;;;6249371;28;20447;-77
2021/09/06 00:50:05;;;;;;;6.10;2.90;;;24.50;52.40;;;;;;6248102;28;20099;-77
2021/09/06 00:53:06;;;;;;;9.00;2.95;;;24.50;52.40;;;;;;6230621;28;20038;-77
2021/09/06 00:56:08;;;;;;;7.75;3.67;;;24.50;52.50;;;;;;6246224;28;20037;-77
2021/09/06 00:59:10;;;;;;;5.80;2.97;;;24.40;52.60;;;;;;6230813;28;20112;-77
2021/09/06 01:02:12;;;;;;;8.65;3.13;;;24.40;52.70;;;;;;6214797;28;20075;-77
2021/09/06 01:05:14;;;;;;;4.90;3.25;;;24.30;52.80;;;;;;6227170;28;20037;-77
2021/09/06 01:08:36;;;;;;;5.82;2.97;;;24.30;52.80;;;;;;6241382;28;20417;-77
2021/09/06 01:12:03;;;;;;;4.90;3.20;;;24.30;52.90;;;;;;6249200;28;20056;-77
2021/09/06 01:15:14;;;;;;;6.25;3.30;;;24.30;52.90;;;;;;6232051;28;20102;-77
2021/09/06 01:18:16;;;;;;;6.10;3.60;;;24.30;53.00;;;;;;6231274;28;20116;-77
2021/09/06 01:21:18;;;;;;;9.35;3.03;;;24.30;53.20;;;;;;6253776;28;20040;-77
2021/09/06 01:24:48;;;;;;;4.65;2.92;;;24.20;53.30;;;;;;6247333;28;20508;-77
2021/09/06 01:27:52;;;;;;;6.20;3.35;;;24.20;53.50;;;;;;6248880;28;20041;-76
2021/09/06 01:31:04;;;;;;;6.03;3.40;;;24.10;53.70;;;;;;6232923;28;20433;-78
2021/09/06 01:34:16;;;;;;;4.82;3.47;;;24.10;54.10;;;;;;6231889;28;20587;-76
2021/09/06 01:37:17;;;;;;;14.32;3.50;;;24.00;54.20;;;;;;6248199;28;20060;-76
2021/09/06 01:40:26;;;;;;;6.68;3.35;;;24.00;54.50;;;;;;6232429;28;20021;-76
2021/09/06 01:43:27;;;;;;;8.38;3.58;;;23.90;54.70;;;;;;6224199;28;20025;-76
2021/09/06 01:46:34;;;;;;;4.82;3.08;;;23.90;54.90;;;;;;6245626;28;20032;-77
2021/09/06 01:49:37;;;;;;;8.88;3.25;;;23.80;55.10;;;;;;6246847;28;20044;-77
2021/09/06 01:52:39;;;;;;;4.43;3.30;;;23.70;55.20;;;;;;6249179;28;20463;-77
2021/09/06 01:55:39;;;;;;;6.03;3.40;;;23.70;55.40;;;;;;6250499;28;20347;-77
2021/09/06 01:58:48;;;;;;;7.80;3.30;;;23.60;55.50;;;;;;6247423;28;20124;-76
2021/09/06 02:01:52;;;;;;;9.45;3.35;;;23.60;55.60;;;;;;6230485;28;20037;-76
2021/09/06 02:04:54;;;;;;;3.83;3.08;;;23.60;55.70;;;;;;6247279;28;20029;-76
2021/09/06 02:07:56;;;;;;;6.43;3.90;;;23.60;55.80;;;;;;6230374;28;20040;-76
2021/09/06 02:10:58;;;;;;;7.38;4.40;;;23.60;55.90;;;;;;6247735;28;20091;-77
2021/09/06 02:14:00;;;;;;;8.55;2.75;;;23.60;56.00;;;;;;6249086;28;20116;-77
2021/09/06 02:17:02;;;;;;;5.97;3.30;;;23.60;56.10;;;;;;6247890;28;20354;-77
2021/09/06 02:20:08;;;;;;;4.15;2.67;;;23.60;56.20;;;;;;6231319;28;20056;-77
2021/09/06 02:23:10;;;;;;;7.78;3.53;;;23.60;56.10;;;;;;6230768;28;20383;-78
2021/09/06 02:26:13;;;;;;;5.90;3.38;;;23.60;56.20;;;;;;6246932;28;20037;-78
2021/09/06 02:29:14;;;;;;;6.50;3.33;;;23.50;56.20;;;;;;6246307;28;20067;-77
2021/09/06 02:32:26;;;;;;;7.22;3.20;;;23.50;56.20;;;;;;6231944;28;20053;-78
2021/09/06 02:35:37;;;;;;;10.07;3.65;;;23.50;56.20;;;;;;6248069;28;20030;-78
2021/09/06 02:38:38;;;;;;;4.85;3.08;;;23.40;56.20;;;;;;6247043;28;20037;-78
2021/09/06 02:41:46;;;;;;;5.40;3.28;;;23.40;56.30;;;;;;6248119;28;20048;-77
2021/09/06 02:44:47;;;;;;;7.70;3.22;;;23.40;56.40;;;;;;6231648;28;20029;-78
2021/09/06 02:47:48;;;;;;;5.07;3.17;;;23.30;56.50;;;;;;6247699;28;20036;-78
2021/09/06 02:50:51;;;;;;;4.57;2.88;;;23.30;56.70;;;;;;6246659;28;20475;-78
2021/09/06 02:53:52;;;;;;;10.85;3.38;;;23.30;56.80;;;;;;6247643;28;20084;-78
2021/09/06 02:56:53;;;;;;;6.25;3.30;;;23.20;56.90;;;;;;6246616;28;20029;-78
2021/09/06 02:59:54;;;;;;;5.53;3.22;;;23.10;57.00;;;;;;6231317;28;20463;-77
2021/09/06 03:02:55;;;;;;;5.90;3.65;;;23.10;57.20;;;;;;6245844;28;20128;-77
2021/09/06 03:05:58;;;;;;;5.55;3.47;;;23.10;57.30;;;;;;6246911;28;20497;-78
2021/09/06 03:08:59;;;;;;;6.32;3.65;;;23.00;57.50;;;;;;6226899;28;20033;-77
2021/09/06 03:12:03;;;;;;;6.68;3.75;;;23.00;57.40;;;;;;6217880;28;20037;-77
2021/09/06 03:15:05;;;;;;;14.55;4.20;;;23.00;57.30;;;;;;6221703;28;20463;-77
2021/09/06 03:18:06;;;;;;;5.47;3.95;;;23.00;57.40;;;;;;6222048;28;20096;-76
2021/09/06 03:21:30;;;;;;;6.32;4.00;;;22.90;57.40;;;;;;6223157;28;20025;-77
2021/09/06 03:24:31;;;;;;;7.22;4.32;;;22.90;57.40;;;;;;6223337;28;20048;-77
2021/09/06 03:27:32;;;;;;;8.00;4.25;;;22.90;57.50;;;;;;6241096;28;20355;-77
2021/09/06 03:30:37;;;;;;;7.28;4.30;;;22.80;57.50;;;;;;6247747;28;20049;-78
2021/09/06 03:33:38;;;;;;;11.57;4.43;;;22.80;57.50;;;;;;6247659;28;20084;-78
2021/09/06 03:36:39;;;;;;;7.50;4.40;;;22.80;57.50;;;;;;6247853;28;20116;-78
2021/09/06 03:39:41;;;;;;;6.35;3.78;;;22.80;57.50;;;;;;6225316;28;20052;-78
2021/09/06 03:42:43;;;;;;;11.60;4.57;;;22.80;57.40;;;;;;6247983;28;20474;-78
2021/09/06 03:45:44;;;;;;;6.00;3.83;;;22.70;57.40;;;;;;6246876;28;20041;-78
2021/09/06 03:48:46;;;;;;;6.70;4.65;;;22.70;57.50;;;;;;6245923;28;20036;-77
2021/09/06 03:51:47;;;;;;;8.80;4.55;;;22.70;57.50;;;;;;6247619;28;20068;-78
2021/09/06 03:54:52;;;;;;;9.57;4.72;;;22.60;57.50;;;;;;6231788;28;20041;-77
2021/09/06 03:57:53;;;;;;;9.18;4.47;;;22.50;57.60;;;;;;6247474;28;20111;-77
2021/09/06 04:00:55;;;;;;;9.32;4.57;;;22.50;57.80;;;;;;6246080;28;20038;-77
2021/09/06 04:04:02;;;;;;;7.95;3.90;;;22.40;57.90;;;;;;6248330;28;20045;-77
2021/09/06 04:07:03;;;;;;;8.40;4.45;;;22.40;57.90;;;;;;6246031;28;20482;-78
2021/09/06 04:10:10;;;;;;;8.27;4.57;;;22.40;58.00;;;;;;6247608;28;20046;-77
2021/09/06 04:13:11;;;;;;;8.63;4.40;;;22.40;58.10;;;;;;6242315;28;20065;-77
2021/09/06 04:16:12;;;;;;;6.15;3.85;;;22.30;58.10;;;;;;6230751;28;20095;-78
2021/09/06 04:19:14;;;;;;;7.90;4.03;;;22.30;58.10;;;;;;6247621;28;20033;-77
2021/09/06 04:22:16;;;;;;;6.78;3.88;;;22.30;58.10;;;;;;6247207;28;20029;-77
2021/09/06 04:25:17;;;;;;;7.70;3.60;;;22.30;58.20;;;;;;6229641;28;20080;-78
2021/09/06 04:28:19;;;;;;;6.82;3.88;;;22.30;58.20;;;;;;6247455;28;20205;-77
2021/09/06 04:31:21;;;;;;;10.60;3.97;;;22.20;58.20;;;;;;6227996;28;20057;-78
2021/09/06 04:34:24;;;;;;;6.47;3.88;;;22.20;58.30;;;;;;6245195;28;20030;-77
2021/09/06 04:37:26;;;;;;;8.02;4.07;;;22.20;58.30;;;;;;6227075;28;20490;-77
2021/09/06 04:40:28;;;;;;;8.80;4.28;;;22.20;58.30;;;;;;6246889;28;20402;-77
2021/09/06 04:43:29;;;;;;;8.82;4.72;;;22.10;58.40;;;;;;6230238;28;20088;-77
2021/09/06 04:46:33;;;;;;;7.22;4.25;;;22.10;58.50;;;;;;6246763;28;20037;-77
2021/09/06 04:49:37;;;;;;;9.48;4.07;;;22.10;58.60;;;;;;6247902;28;20037;-77
2021/09/06 04:52:38;;;;;;;10.80;4.00;;;22.10;58.70;;;;;;6246666;28;20045;-77
2021/09/06 04:55:43;;;;;;;8.25;4.28;;;22.00;58.80;;;;;;6230777;28;20030;-77
2021/09/06 04:58:44;;;;;;;8.10;4.15;;;22.00;59.00;;;;;;6226805;28;20450;-77
2021/09/06 05:01:46;;;;;;;8.98;3.80;;;22.00;59.10;;;;;;6230187;28;20108;-77
2021/09/06 05:04:47;;;;;;;10.48;5.03;;;22.00;59.00;;;;;;6246918;28;20047;-77
2021/09/06 05:07:48;;;;;;;8.18;4.70;;;22.00;59.10;;;;;;6245907;28;20188;-78
2021/09/06 05:10:50;;;;;;;6.90;4.40;;;22.00;59.10;;;;;;6249090;28;20406;-77
2021/09/06 05:13:51;;;;;;;9.43;4.50;;;21.90;59.10;;;;;;6250947;28;20422;-76
2021/09/06 05:16:52;;;;;;;8.27;4.45;;;21.90;59.10;;;;;;6251087;28;20044;-79
2021/09/06 05:19:53;;;;;;;7.40;3.63;;;21.90;59.20;;;;;;6233411;28;20030;-77
2021/09/06 05:22:55;;;;;;;9.75;3.88;;;21.90;59.20;;;;;;6250816;28;20033;-78
2021/09/06 05:25:56;;;;;;;6.35;3.50;;;21.90;59.30;;;;;;6250807;28;20378;-77
2021/09/06 05:28:59;;;;;;;8.77;4.00;;;21.80;59.90;;;;;;6250923;28;20038;-77
2021/09/06 05:32:01;;;;;;;5.95;3.45;;;21.80;59.40;;;;;;6250498;28;20075;-77
2021/09/06 05:35:03;;;;;;;6.32;3.92;;;21.80;59.50;;;;;;6219928;28;20037;-77
2021/09/06 05:38:04;;;;;;;5.93;3.60;;;21.80;59.40;;;;;;6249945;28;20036;-78
2021/09/06 05:41:28;;;;;;;6.45;3.92;;;21.80;59.40;;;;;;6176160;28;20371;-79
2021/09/06 05:44:30;;;;;;;6.55;3.85;;;21.90;60.10;;;;;;6157245;28;20432;-78
2021/09/06 05:47:32;;;;;;;11.48;4.30;;;21.90;59.50;;;;;;6157532;28;20038;-78
2021/09/06 05:50:38;;;;;;;20.30;3.92;;;21.90;59.50;;;;;;6157062;28;20034;-78
2021/09/06 05:54:17;;;;;;;8.70;4.45;;;21.90;59.50;;;;;;6138345;28;20039;-77
2021/09/06 05:57:18;;;;;;;6.47;4.05;;;21.90;59.50;;;;;;6142911;28;20098;-77
2021/09/06 06:00:19;;;;;;;9.10;4.03;;;22.00;59.40;;;;;;6133866;28;20114;-78
2021/09/06 06:03:21;;;;;;;7.15;3.80;;;22.00;59.50;;;;;;6124278;29;20043;-77
2021/09/06 06:06:22;;;;;;;6.50;3.58;;;22.00;59.40;;;;;;6132584;28;20051;-79
2021/09/06 06:09:27;;;;;;;7.40;4.18;;;22.00;59.40;;;;;;6149390;28;20031;-78
2021/09/06 06:12:30;;;;;;;6.97;4.05;;;22.10;59.40;;;;;;6150423;28;20180;-77
2021/09/06 06:15:31;;;;;;;9.43;3.83;;;22.10;59.30;;;;;;6134245;28;20097;-76
2021/09/06 06:18:33;;;;;;;8.68;4.50;;;22.10;59.30;;;;;;6165606;28;20090;-76
2021/09/06 06:21:34;;;;;;;5.57;3.45;;;22.20;59.30;;;;;;6156363;28;20173;-77
2021/09/06 06:24:54;;;;;;;5.55;3.03;;;22.30;59.10;;;;;;6194803;28;20045;-78
2021/09/06 06:28:24;;;;;;;12.18;5.00;;;22.30;58.90;;;;;;6157182;28;20035;-78
2021/09/06 06:31:26;;;;;;;6.68;3.70;;;22.40;58.70;;;;;;6153354;28;20043;-78
2021/09/06 06:34:27;;;;;;;8.32;3.35;;;22.40;58.60;;;;;;6166781;28;20034;-77
2021/09/06 06:37:28;;;;;;;8.50;3.60;;;22.40;58.30;;;;;;6166882;28;20030;-77
2021/09/06 06:40:29;;;;;;;6.85;3.92;;;22.50;58.20;;;;;;6168201;28;20026;-78
2021/09/06 06:43:33;;;;;;;5.43;3.65;;;22.50;58.00;;;;;;6152840;28;20121;-77
2021/09/06 06:46:35;;;;;;;7.55;3.45;;;22.50;57.90;;;;;;6152749;28;20372;-77
2021/09/06 06:49:36;;;;;;;12.23;3.55;;;22.60;57.90;;;;;;6168094;28;20132;-76
2021/09/06 06:52:38;;;;;;;6.97;3.78;;;22.60;57.80;;;;;;6168498;28;20487;-77
2021/09/06 06:55:41;;;;;;;11.30;4.78;;;22.70;57.80;;;;;;6169152;28;20445;-79
2021/09/06 06:58:43;;;;;;;6.38;3.40;;;22.80;57.70;;;;;;6163089;28;20423;-78
2021/09/06 07:01:48;;;;;;;7.90;3.70;;;22.80;57.50;;;;;;6168628;28;20113;-78
2021/09/06 07:04:54;;;;;;;4.90;3.15;;;23.00;57.60;;;;;;6221580;28;20034;-78
2021/09/06 07:07:55;;;;;;;8.10;3.13;;;23.00;57.40;;;;;;6223552;28;20059;-77
2021/09/06 07:10:56;;;;;;;6.75;3.70;;;23.10;57.10;;;;;;6226849;28;20034;-78
2021/09/06 07:13:57;;;;;;;7.60;3.55;;;23.20;56.80;;;;;;6243238;28;20034;-77
2021/09/06 07:16:58;;;;;;;11.10;5.32;;;23.30;56.70;;;;;;6243211;28;20121;-78
2021/09/06 07:20:00;;;;;;;4.85;3.22;;;23.30;56.50;;;;;;6226585;28;20443;-78
2021/09/06 07:23:01;;;;;;;9.45;3.67;;;23.30;56.30;;;;;;6242726;28;20045;-78
2021/09/06 07:26:03;;;;;;;7.85;4.10;;;23.40;56.20;;;;;;6225209;28;20045;-79
2021/09/06 07:29:04;;;;;;;11.68;3.65;;;23.40;56.00;;;;;;6242655;28;20430;-78
2021/09/06 07:32:05;;;;;;;6.78;3.85;;;23.40;55.70;;;;;;6247955;28;20060;-78
2021/09/06 07:35:07;;;;;;;6.47;3.38;;;23.50;55.60;;;;;;6241543;28;20033;-78
2021/09/06 07:38:08;;;;;;;9.75;3.67;;;23.60;55.40;;;;;;6227252;28;20122;-79
2021/09/06 07:41:09;;;;;;;7.15;4.13;;;23.80;55.00;;;;;;6243790;28;20474;-78
2021/09/06 07:44:12;;;;;;;11.13;3.97;;;23.90;54.80;;;;;;6243610;28;20038;-78
2021/09/06 07:47:15;;;;;;;6.72;4.30;;;24.00;54.60;;;;;;6237158;28;20043;-78
2021/09/06 07:50:20;;;;;;;10.27;3.85;;;24.20;54.30;;;;;;6223247;28;20036;-78
2021/09/06 07:53:23;;;;;;;5.65;4.18;;;24.30;54.00;;;;;;6226376;28;20033;-78
2021/09/06 07:56:24;;;;;;;10.32;4.10;;;24.50;53.80;;;;;;6244251;28;20386;-77
2021/09/06 07:59:25;;;;;;;9.63;4.00;;;24.70;53.50;;;;;;6244519;28;20034;-78
2021/09/06 08:02:26;;;;;;;13.30;4.03;;;24.80;53.20;;;;;;6244423;28;20033;-78
2021/09/06 08:05:29;;;;;;;7.22;3.85;;;24.90;52.90;;;;;;6228019;28;20045;-79
2021/09/06 08:08:34;;;;;;;11.52;3.60;;;25.00;52.50;;;;;;6226947;28;20355;-77
2021/09/06 08:11:36;;;;;;;6.60;3.25;;;25.10;52.30;;;;;;6244038;28;20060;-78
2021/09/06 08:14:38;;;;;;;10.32;3.08;;;25.20;52.20;;;;;;6244787;28;20025;-78
2021/09/06 08:17:40;;;;;;;6.50;3.10;;;25.30;51.90;;;;;;6243268;28;20037;-78
2021/09/06 08:20:43;;;;;;;6.22;3.22;;;25.50;51.50;;;;;;6244094;28;20455;-77
2021/09/06 08:23:44;;;;;;;4.65;2.97;;;25.60;51.00;;;;;;6236429;28;20390;-78
2021/09/06 08:26:45;;;;;;;5.20;3.10;;;25.70;50.60;;;;;;6244266;28;20056;-77
2021/09/06 08:29:49;;;;;;;7.78;2.97;;;25.80;50.40;;;;;;6244315;28;20037;-77
2021/09/06 08:32:51;;;;;;;9.88;3.90;;;26.00;50.00;;;;;;6220958;28;20489;-78
2021/09/06 08:35:53;;;;;;;9.13;3.35;;;26.10;49.70;;;;;;6243922;28;20037;-78
2021/09/06 08:38:56;;;;;;;3.95;2.88;;;26.20;49.50;;;;;;6218981;28;20040;-79
2021/09/06 08:42:00;;;;;;;7.88;3.20;;;26.40;49.30;;;;;;6243953;28;20471;-78
2021/09/06 08:45:02;;;;;;;6.90;3.00;;;26.50;48.90;;;;;;6240910;28;20042;-78
2021/09/06 08:48:04;;;;;;;7.10;3.30;;;26.60;48.90;;;;;;6233519;28;20043;-78
2021/09/06 08:51:07;;;;;;;3.85;3.03;;;26.70;48.80;;;;;;6250208;28;20508;-78
2021/09/06 08:54:09;;;;;;;9.05;4.25;;;26.80;48.60;;;;;;6249716;28;20374;-79
2021/09/06 08:57:13;;;;;;;9.50;3.30;;;27.00;48.30;;;;;;6247850;28;20051;-78
2021/09/06 09:00:24;;;;;;;3.92;3.08;;;27.10;48.10;;;;;;6258031;28;20033;-80
2021/09/06 09:03:42;;;;;;;20.75;10.43;;;27.20;47.90;;;;;;6246817;28;20117;-77
2021/09/06 09:06:56;;;;;;;16.08;6.30;;;27.30;47.60;;;;;;6248482;28;20116;-78
2021/09/06 09:10:24;;;;;;;11.15;3.17;;;27.30;47.30;;;;;;6245067;28;20096;-80
2021/09/06 09:13:44;;;;;;;4.63;3.50;;;27.40;47.40;;;;;;6230443;28;20034;-78
2021/09/06 09:16:58;;;;;;;8.23;4.65;;;27.40;47.10;;;;;;6247320;28;20052;-77
2021/09/06 09:20:20;;;;;;;6.10;3.72;;;27.40;46.90;;;;;;6240254;28;20041;-79
2021/09/06 09:23:51;;;;;;;9.43;3.40;;;27.40;47.00;;;;;;6243490;28;20033;-78
2021/09/06 09:27:13;;;;;;;18.30;5.75;;;27.50;47.00;;;;;;6237747;28;20052;-78
2021/09/06 09:30:36;;;;;;;6.60;3.47;;;27.60;46.80;;;;;;6227061;28;20060;-78
2021/09/06 09:34:04;;;;;;;7.07;3.90;;;27.70;46.70;;;;;;6221531;28;20094;-79
2021/09/06 09:37:25;;;;;;;7.57;3.40;;;27.70;46.50;;;;;;6232233;28;20118;-78
2021/09/06 09:40:33;;;;;;;6.18;3.33;;;27.80;46.40;;;;;;6230170;28;20037;-78
2021/09/06 09:43:35;;;;;;;5.00;3.20;;;27.80;46.40;;;;;;6229679;28;20060;-78
2021/09/06 09:46:37;;;;;;;6.07;3.00;;;27.90;46.10;;;;;;6244380;28;20527;-78
2021/09/06 09:49:41;;;;;;;11.05;4.57;;;28.00;46.20;;;;;;6245552;28;20029;-78
2021/09/06 09:52:44;;;;;;;11.73;4.22;;;28.10;46.00;;;;;;6245851;28;20048;-78
2021/09/06 09:55:47;;;;;;;17.50;5.63;;;28.10;45.50;;;;;;6222292;28;20451;-78
2021/09/06 09:58:48;;;;;;;8.55;4.55;;;28.10;45.30;;;;;;6241432;28;20033;-77
2021/09/06 10:02:07;;;;;;;19.00;5.82;;;28.10;45.20;;;;;;6245122;28;20567;-77
2021/09/06 10:05:10;;;;;;;9.90;5.75;;;28.10;45.10;;;;;;6245250;28;20355;-77
2021/09/06 10:08:16;;;;;;;7.00;4.35;;;28.20;45.00;;;;;;6242523;28;20026;-76
2021/09/06 10:11:18;;;;;;;4.57;2.83;;;28.20;44.60;;;;;;6231022;28;20184;-78
2021/09/06 10:14:22;;;;;;;4.93;2.85;;;28.30;44.50;;;;;;6247812;28;20041;-78
2021/09/06 10:17:38;;;;;;;11.15;6.47;;;28.40;44.40;;;;;;6249613;28;20029;-78
2021/09/06 10:20:40;;;;;;;13.25;6.72;;;28.60;44.20;;;;;;6245003;28;20115;-77
2021/09/06 10:23:51;;;;;;;11.45;4.65;;;28.70;43.90;;;;;;6243959;28;20399;-79
2021/09/06 10:27:03;;;;;;;7.85;4.47;;;28.50;43.60;;;;;;6245858;28;20388;-78
2021/09/06 10:30:08;;;;;;;10.88;5.97;;;28.90;43.40;;;;;;6226661;28;20447;-79
2021/09/06 10:33:31;;;;;;;6.78;3.05;;;29.00;43.30;;;;;;6219994;28;20060;-78
2021/09/06 10:36:33;;;;;;;9.38;5.43;;;29.00;43.30;;;;;;6243953;28;20064;-79
2021/09/06 10:39:48;;;;;;;6.05;3.83;;;29.30;42.70;;;;;;6244704;28;20050;-79
2021/09/06 10:42:50;;;;;;;6.60;3.60;;;29.60;42.00;;;;;;6245134;28;20458;-78
2021/09/06 10:45:52;;;;;;;6.75;2.67;;;30.10;41.50;;;;;;6244291;28;20041;-77
2021/09/06 10:49:01;;;;;;;9.77;3.10;;;30.50;40.90;;;;;;6244831;28;20057;-78
2021/09/06 10:52:03;;;;;;;11.40;3.00;;;30.90;40.30;;;;;;6227645;28;20088;-78
2021/09/06 10:55:05;;;;;;;9.63;3.33;;;31.30;40.00;;;;;;6226052;28;20043;-78
2021/09/06 10:58:10;;;;;;;5.10;3.22;;;31.70;39.50;;;;;;6242133;28;20055;-79
2021/09/06 11:01:11;;;;;;;4.55;3.00;;;32.00;38.70;;;;;;6245655;28;20071;-79
2021/09/06 11:04:13;;;;;;;4.15;2.63;;;32.30;37.80;;;;;;6245073;28;20049;-78
2021/09/06 11:07:14;;;;;;;4.90;2.88;;;32.50;37.40;;;;;;6234522;28;20059;-78
2021/09/06 11:10:22;;;;;;;6.15;3.08;;;32.80;37.10;;;;;;6228628;28;20037;-79
2021/09/06 11:13:32;;;;;;;;;;;33.00;36.90;;;;;;6222468;28;20043;-78
2021/09/06 11:16:36;;;;;;;10.55;4.93;;;33.20;36.70;;;;;;6238306;28;19924;-79
2021/09/06 11:19:40;;;;;;;4.63;2.58;;;33.30;36.30;;;;;;6218559;28;20033;-78
2021/09/06 11:22:42;;;;;;;7.97;2.75;;;33.40;36.10;;;;;;6237546;28;20053;-79
2021/09/06 11:25:49;;;;;;;4.75;3.17;;;33.50;35.80;;;;;;6226873;28;20058;-79
2021/09/06 11:28:50;;;;;;;5.25;3.08;;;33.60;35.50;;;;;;6239412;28;20037;-79
2021/09/06 11:31:52;;;;;;;9.98;3.28;;;33.80;35.20;;;;;;6225755;28;20987;-79
2021/09/06 11:35:06;;;;;;;6.18;2.60;;;33.90;34.30;;;;;;6244933;28;20124;-78
2021/09/06 11:38:08;;;;;;;9.05;2.67;;;34.00;34.00;;;;;;6246366;28;20037;-78
2021/09/06 11:41:10;;;;;;;3.30;2.88;;;34.20;34.00;;;;;;6239374;28;20417;-78
2021/09/06 11:44:11;;;;;;;4.47;2.50;;;34.40;33.80;;;;;;6244940;28;20042;-78
2021/09/06 11:47:12;;;;;;;9.20;2.88;;;34.60;32.90;;;;;;6236968;28;20132;-78
2021/09/06 11:50:15;;;;;;;7.00;2.80;;;34.80;32.80;;;;;;6248423;28;20033;-78
2021/09/06 11:53:19;;;;;;;5.47;2.72;;;34.90;32.50;;;;;;6239765;28;20045;-78
2021/09/06 11:56:20;;;;;;;3.92;2.60;;;35.10;32.20;;;;;;6245556;28;20056;-78
2021/09/06 11:59:28;;;;;;;4.45;2.67;;;35.20;31.80;;;;;;6243543;28;20041;-78
2021/09/06 12:02:29;;;;;;;4.25;2.97;;;35.50;31.40;;;;;;6246290;28;20034;-79
2021/09/06 12:05:38;;;;;;;7.13;3.00;;;35.80;31.10;;;;;;6243355;28;20478;-78
2021/09/06 12:08:53;;;;;;;5.03;2.92;;;35.90;30.40;;;;;;6226744;28;20057;-78
2021/09/06 12:11:56;;;;;;;5.57;2.92;;;36.10;30.00;;;;;;6225094;28;20447;-78
2021/09/06 12:14:57;;;;;;;6.00;2.55;;;36.40;29.90;;;;;;6244256;28;20029;-78
2021/09/06 12:18:09;;;;;;;4.60;2.53;;;36.70;29.30;;;;;;6236948;28;20473;-78
2021/09/06 12:21:19;;;;;;;3.42;2.35;;;37.20;28.80;;;;;;6247544;28;20025;-78
2021/09/06 12:24:24;;;;;;;3.70;2.17;;;37.90;28.10;;;;;;6232878;28;20524;-79
2021/09/06 12:27:25;;;;;;;5.18;2.53;;;38.60;26.90;;;;;;6232202;28;20103;-78
2021/09/06 12:30:26;;;;;;;4.22;1.85;;;39.20;26.20;;;;;;6230856;28;20459;-79
2021/09/06 12:33:28;;;;;;;5.93;2.00;;;39.80;25.50;;;;;;6232273;28;20382;-79
2021/09/06 12:36:29;;;;;;;5.28;2.45;;;40.30;24.60;;;;;;6231891;28;20474;-78
2021/09/06 12:39:34;;;;;;;4.32;2.10;;;40.80;24.40;;;;;;6226503;28;20112;-77
2021/09/06 12:42:34;;;;;;;4.65;2.30;;;41.20;24.10;;;;;;6223502;28;20478;-79
2021/09/06 12:45:35;;;;;;;4.00;2.38;;;41.70;23.70;;;;;;6222194;28;20046;-79
2021/09/06 12:48:36;;;;;;;4.45;2.25;;;41.90;23.10;;;;;;6249449;28;20451;-78
2021/09/06 12:51:38;;;;;;;6.18;2.90;;;42.10;23.00;;;;;;6252407;28;20033;-78
2021/09/06 12:54:39;;;;;;;6.15;2.30;;;42.10;22.80;;;;;;6247518;28;20044;-78
2021/09/06 12:57:40;;;;;;;8.15;3.35;;;42.20;22.70;;;;;;6234293;28;20104;-78
2021/09/06 13:00:41;;;;;;;6.68;2.20;;;42.70;22.50;;;;;;6225961;28;20033;-78
2021/09/06 13:03:41;;;;;;;2.95;2.13;;;43.00;22.20;;;;;;6247943;28;20430;-78
2021/09/06 13:06:42;;;;;;;4.45;2.42;;;43.30;22.00;;;;;;6254090;28;20048;-78
2021/09/06 13:09:43;;;;;;;4.13;2.28;;;43.70;21.70;;;;;;6231117;28;20044;-78
2021/09/06 13:12:44;;;;;;;4.43;2.45;;;44.10;21.30;;;;;;6231672;28;20120;-77
2021/09/06 13:15:48;;;;;;;2.90;2.15;;;44.40;21.00;;;;;;6248662;28;20371;-78
2021/09/06 13:18:49;;;;;;;4.13;2.30;;;44.80;20.80;;;;;;6230309;28;20458;-79
2021/09/06 13:21:50;;;;;;;4.60;2.13;;;44.80;20.50;;;;;;6229056;28;20026;-77
2021/09/06 13:24:51;;;;;;;4.57;2.00;;;44.80;20.20;;;;;;6249246;28;20098;-78
2021/09/06 13:27:52;;;;;;;4.95;2.03;;;44.70;20.00;;;;;;6248247;28;20041;-78
2021/09/06 13:30:53;;;;;;;6.47;1.92;;;44.90;19.60;;;;;;6217982;28;20072;-79
2021/09/06 13:33:54;;;;;;;7.15;2.13;;;45.40;19.60;;;;;;6233285;28;20047;-78
2021/09/06 13:36:55;;;;;;;2.70;1.80;;;45.40;19.40;;;;;;6247335;28;20463;-78
2021/09/06 13:39:56;;;;;;;6.43;2.05;;;45.50;19.10;;;;;;6223803;28;20171;-79
2021/09/06 13:42:57;;;;;;;4.40;1.83;;;45.50;18.90;;;;;;6231147;28;20029;-78
2021/09/06 13:45:58;;;;;;;2.80;1.90;;;45.40;18.50;;;;;;6241701;28;20099;-79
2021/09/06 13:48:59;;;;;;;1.65;1.55;;;44.70;18.90;;;;;;6247949;28;20033;-80
2021/09/06 13:52:00;;;;;;;5.18;2.00;;;43.80;19.40;;;;;;6246472;28;20044;-78
2021/09/06 13:55:01;;;;;;;6.18;2.35;;;42.70;20.60;;;;;;6230939;28;20114;-78
2021/09/06 13:58:02;;;;;;;5.18;2.05;;;41.70;20.90;;;;;;6246802;28;20038;-78
2021/09/06 14:01:03;;;;;;;4.40;2.15;;;40.80;21.90;;;;;;6247826;28;20425;-78
2021/09/06 14:04:05;;;;;;;7.45;2.10;;;40.00;22.70;;;;;;6246891;28;20065;-79
2021/09/06 14:07:06;;;;;;;3.10;1.90;;;39.30;23.30;;;;;;6247305;28;20478;-77
2021/09/06 14:10:08;;;;;;;2.72;2.17;;;38.60;23.70;;;;;;6225116;28;20033;-78
2021/09/06 14:13:09;;;;;;;7.63;2.25;;;38.00;24.30;;;;;;6246762;28;20037;-79
2021/09/06 14:16:10;;;;;;;3.90;1.90;;;37.50;24.80;;;;;;6248697;28;20029;-78
2021/09/06 14:19:12;;;;;;;3.30;2.00;;;37.00;24.80;;;;;;6246005;28;20037;-78
2021/09/06 14:22:14;;;;;;;3.15;2.13;;;36.60;25.10;;;;;;6247026;28;20045;-79
2021/09/06 14:25:15;;;;;;;7.15;1.92;;;36.20;25.20;;;;;;6228950;28;20033;-78
2021/09/06 14:28:16;;;;;;;4.25;2.10;;;35.80;25.40;;;;;;6230286;28;20136;-78
2021/09/06 14:31:16;;;;;;;3.15;1.80;;;35.50;25.70;;;;;;6245241;28;20091;-78
2021/09/06 14:34:17;;;;;;;5.47;2.35;;;35.20;26.00;;;;;;6247953;28;20485;-78
2021/09/06 14:37:18;;;;;;;9.13;2.10;;;35.00;26.30;;;;;;6248524;28;20026;-77
2021/09/06 14:40:20;;;;;;;4.75;2.40;;;34.90;26.70;;;;;;6247265;28;20029;-78
2021/09/06 14:43:21;;;;;;;3.33;2.65;;;34.70;27.10;;;;;;6245892;28;20053;-78
2021/09/06 14:46:22;;;;;;;3.55;2.45;;;34.60;27.90;;;;;;6228968;28;20037;-78
2021/09/06 14:49:23;;;;;;;5.57;2.22;;;34.40;28.30;;;;;;6246458;28;20044;-78
2021/09/06 14:52:27;;;;;;;5.15;2.60;;;34.30;28.60;;;;;;6246572;28;20041;-77
2021/09/06 14:55:28;;;;;;;7.95;2.22;;;34.20;28.80;;;;;;6246112;28;20435;-79
2021/09/06 14:58:29;;;;;;;4.55;2.30;;;34.10;29.10;;;;;;6241960;28;20025;-79
2021/09/06 15:01:31;;;;;;;3.58;2.40;;;34.00;29.30;;;;;;6248454;28;20037;-79
2021/09/06 15:04:32;;;;;;;3.42;2.50;;;33.90;29.50;;;;;;6247661;28;20037;-80
2021/09/06 15:07:33;;;;;;;5.80;2.17;;;33.80;29.60;;;;;;6246813;28;20045;-78
2021/09/06 15:10:35;;;;;;;5.28;2.28;;;33.70;30.00;;;;;;6241906;28;20119;-77
2021/09/06 15:13:36;;;;;;;4.40;1.90;;;33.70;30.00;;;;;;6225037;28;20459;-78
2021/09/06 15:16:37;;;;;;;3.50;1.90;;;33.60;29.70;;;;;;6229488;28;20528;-78
2021/09/06 15:19:37;;;;;;;4.07;1.95;;;33.60;29.60;;;;;;6247297;28;20130;-77
2021/09/06 15:22:39;;;;;;;4.43;1.70;;;33.50;29.60;;;;;;6230229;28;20029;-78
2021/09/06 15:25:40;;;;;;;5.30;2.42;;;33.40;29.70;;;;;;6245680;28;20038;-79
2021/09/06 15:28:41;;;;;;;4.85;2.05;;;33.40;30.00;;;;;;6253564;28;20423;-78
2021/09/06 15:31:45;;;;;;;3.72;2.20;;;33.40;30.10;;;;;;6246147;28;20060;-78
2021/09/06 15:34:46;;;;;;;4.50;2.70;;;33.40;30.40;;;;;;6224876;28;20053;-79
2021/09/06 15:37:49;;;;;;;3.75;2.70;;;33.40;30.80;;;;;;6230003;28;20043;-77
2021/09/06 15:40:55;;;;;;;5.68;2.10;;;33.40;31.00;;;;;;6246251;28;20121;-77
2021/09/06 15:48:17;;;;;;;;;;;33.30;31.00;;;;;;6244478;28;20041;-78
2021/09/06 15:51:18;;;;;;;3.38;2.20;;;33.30;31.00;;;;;;6247456;28;19960;-78
2021/09/06 15:54:19;;;;;;;4.35;2.40;;;33.30;31.30;;;;;;6246586;28;20466;-78
2021/09/06 15:57:25;;;;;;;5.78;2.78;;;33.30;31.50;;;;;;6230002;28;20660;-79
2021/09/06 16:00:26;;;;;;;5.05;2.35;;;33.20;31.70;;;;;;6247351;28;20513;-77
2021/09/06 16:03:27;;;;;;;5.72;2.30;;;33.30;32.00;;;;;;6246523;28;20035;-78